This is the latest recevied weather packets stored in our database for station/object S57PNX-8. If no packets are shown the sender has not sent any weather packets the latest 10 day(s).
| Time | Temp. | Humidity | Pressure | Rain* | Wind** | Luminosity | Snow |
|---|---|---|---|---|---|---|---|
| 1788028896 | 22.22° C | 59% | 1022.7 hPa | - | - | - | - |
| 1788027997 | 22.78° C | 57% | 1022.6 hPa | - | - | - | - |
| 1788027098 | 23.33° C | 54% | 1022.5 hPa | - | - | - | - |
| 1788026199 | 23.89° C | 51% | 1022.4 hPa | - | - | - | - |
| 1788025349 | 25.56° C | 48% | 1022.3 hPa | - | - | - | - |
| 1788025299 | 25.56° C | 48% | 1022.3 hPa | - | - | - | - |
| 1788024400 | 26.67° C | 45% | 1022.4 hPa | - | - | - | - |
| 1788023501 | 27.78° C | 42% | 1022.5 hPa | - | - | - | - |
| 1788022602 | 28.89° C | 37% | 1022.5 hPa | - | - | - | - |
| 1788021703 | 29.44° C | 32% | 1022.6 hPa | - | - | - | - |
| 1788020804 | 32.22° C | 29% | 1022.7 hPa | - | - | - | - |
| 1788019905 | 33.89° C | 27% | 1022.7 hPa | - | - | - | - |
| 1788019047 | 33.33° C | 27% | 1022.8 hPa | - | - | - | - |
| 1788019007 | 33.33° C | 27% | 1022.8 hPa | - | - | - | - |
| 1788018107 | 31.11° C | 35% | 1022.9 hPa | - | - | - | - |
| 1788017209 | 32.22° C | 35% | 1023 hPa | - | - | - | - |
| 1788016309 | 27.78° C | 43% | 1022.9 hPa | - | - | - | - |
| 1788015410 | 27.78° C | 46% | 1022.6 hPa | - | - | - | - |
| 1788014512 | 25.56° C | 54% | 1022.6 hPa | - | - | - | - |
| 1788013612 | 25.56° C | 57% | 1022.6 hPa | - | - | - | - |
| 1788012714 | 25° C | 60% | 1022.6 hPa | - | - | - | - |
| 1788011815 | 25° C | 65% | 1022.7 hPa | - | - | - | - |
| 1788010957 | 25° C | 63% | 1022.6 hPa | - | - | - | - |
| 1788010916 | 25° C | 63% | 1022.6 hPa | - | - | - | - |
| 1788010017 | 25° C | 63% | 1022.6 hPa | - | - | - | - |
* Rain since midnight (hover to see other rain measurements)
** Current wind speed in m/s (hover to see current wind gust speed)